Time;durP1;ratioP1;P1;durP2;ratioP2;P2;SDS_P1;SDS_P2;PMS_P1;PMS_P2;Temp;Humidity;BMP_temperature;BMP_pressure;BME280_temperature;BME280_humidity;BME280_pressure;Samples;Min_cycle;Max_cycle;Signal;HPM_P1;HPM_P2
2021/12/12 00:00:45;;;;;;;105.43;31.00;;;;;;;2.36;91.77;102080.41;1035684;28;20659;-81
2021/12/12 00:01:21;;;;;;;90.43;25.13;;;;;;;2.31;91.15;102079.13;1011447;29;20056;-81
2021/12/12 00:01:54;;;;;;;95.93;27.95;;;;;;;2.32;91.34;102087.66;1019423;29;20138;-81
2021/12/12 00:02:45;;;;;;;105.07;28.30;;;;;;;2.27;91.06;102082.22;1023466;28;20511;-81
2021/12/12 00:03:31;;;;;;;107.07;32.60;;;;;;;2.24;91.72;102070.91;1018719;29;20138;-81
2021/12/12 00:04:12;;;;;;;103.30;24.77;;;;;;;2.26;91.07;102064.31;1019447;29;20043;-82
2021/12/12 00:04:46;;;;;;;88.75;24.95;;;;;;;2.21;91.32;102072.44;1027746;28;20057;-82
2021/12/12 00:05:18;;;;;;;92.63;31.55;;;;;;;2.22;91.39;102071.69;1027508;28;20066;-81
2021/12/12 00:05:54;;;;;;;95.40;28.00;;;;;;;2.24;91.38;102073.47;1023596;29;20111;-81
2021/12/12 00:06:29;;;;;;;90.75;29.83;;;;;;;2.24;91.44;102065.84;1023573;29;20170;-80
2021/12/12 00:07:08;;;;;;;76.85;24.13;;;;;;;2.24;91.29;102071.78;1023542;29;20051;-81
2021/12/12 00:07:40;;;;;;;81.10;24.90;;;;;;;2.26;91.23;102069.38;1023617;28;20055;-81
2021/12/12 00:08:12;;;;;;;91.60;26.08;;;;;;;2.24;91.39;102070.91;1023884;29;20055;-80
2021/12/12 00:08:45;;;;;;;97.13;30.92;;;;;;;2.29;91.30;102067.97;1031317;28;20401;-81
2021/12/12 00:09:31;;;;;;;96.15;28.52;;;;;;;2.27;91.32;102066.97;1028070;28;20580;-81
2021/12/12 00:10:16;;;;;;;68.88;23.15;;;;;;;2.25;91.42;102060.84;1023962;29;20047;-81
2021/12/12 00:10:52;;;;;;;108.57;33.80;;;;;;;2.28;91.63;102062.75;1028424;28;20046;-80
2021/12/12 00:11:26;;;;;;;97.45;27.25;;;;;;;2.26;91.13;102070.25;1036424;28;20273;-81
2021/12/12 00:11:58;;;;;;;95.50;29.27;;;;;;;2.27;91.10;102066.09;1032390;28;20049;-81
2021/12/12 00:12:38;;;;;;;93.60;31.90;;;;;;;2.35;91.59;102071.00;1032255;28;20054;-81
2021/12/12 00:13:18;;;;;;;87.72;29.42;;;;;;;2.35;91.15;102067.53;1024187;29;20641;-80
2021/12/12 00:13:58;;;;;;;94.30;27.52;;;;;;;2.34;91.02;102065.78;1024123;29;20523;-80
2021/12/12 00:14:31;;;;;;;100.05;29.05;;;;;;;2.35;91.15;102065.00;1022997;28;20051;-81
2021/12/12 00:15:05;;;;;;;95.85;30.00;;;;;;;2.37;91.03;102071.09;1025195;28;20090;-80
2021/12/12 00:15:37;;;;;;;92.03;27.33;;;;;;;2.32;91.57;102064.78;1028320;28;20054;-81
2021/12/12 00:16:09;;;;;;;82.65;24.13;;;;;;;2.31;91.03;102068.97;1032397;28;20058;-81
2021/12/12 00:16:41;;;;;;;106.40;27.35;;;;;;;2.33;91.75;102062.34;1028267;28;20081;-80
2021/12/12 00:17:12;;;;;;;88.63;25.98;;;;;;;2.33;91.35;102064.88;1028276;28;20070;-81
2021/12/12 00:17:44;;;;;;;84.30;25.67;;;;;;;2.35;91.03;102065.00;1024399;29;20125;-80
2021/12/12 00:18:16;;;;;;;95.70;28.65;;;;;;;2.39;91.38;102069.56;1028149;28;20055;-80
2021/12/12 00:18:48;;;;;;;94.88;30.20;;;;;;;2.42;91.04;102067.25;1032121;28;20450;-80
2021/12/12 00:19:20;;;;;;;97.35;28.23;;;;;;;2.43;90.80;102065.63;1020131;29;20055;-80
2021/12/12 00:19:52;;;;;;;101.88;31.08;;;;;;;2.43;90.68;102063.94;1023787;28;20047;-80
2021/12/12 00:20:24;;;;;;;94.18;25.30;;;;;;;2.44;90.61;102063.19;1020571;29;20103;-81
2021/12/12 00:20:56;;;;;;;89.88;27.83;;;;;;;2.40;90.96;102058.63;1028183;28;20046;-81
2021/12/12 00:21:29;;;;;;;91.60;25.35;;;;;;;2.41;91.20;102069.69;1020418;29;20130;-81
2021/12/12 00:22:02;;;;;;;81.15;22.75;;;;;;;2.40;91.03;102061.19;1024431;29;20102;-81
2021/12/12 00:22:33;;;;;;;83.90;29.00;;;;;;;2.40;90.99;102061.19;1028188;28;20583;-80
2021/12/12 00:23:05;;;;;;;96.40;32.58;;;;;;;2.47;91.11;102060.88;1024389;29;20094;-80
2021/12/12 00:23:37;;;;;;;86.07;23.48;;;;;;;2.47;91.04;102057.44;1036302;28;20042;-81
2021/12/12 00:24:10;;;;;;;82.55;25.73;;;;;;;2.46;90.98;102059.09;1028413;28;20122;-81
2021/12/12 00:24:42;;;;;;;86.07;27.95;;;;;;;2.45;90.85;102057.31;1020269;29;20048;-80
2021/12/12 00:25:14;;;;;;;77.30;25.80;;;;;;;2.45;91.19;102062.41;1031719;28;20050;-81
2021/12/12 00:25:48;;;;;;;99.18;27.42;;;;;;;2.44;90.62;102053.00;1023893;29;20487;-81
2021/12/12 00:26:20;;;;;;;89.18;25.05;;;;;;;2.42;90.98;102049.44;1028255;28;20039;-81
2021/12/12 00:26:52;;;;;;;75.07;27.10;;;;;;;2.44;91.10;102053.00;1032098;28;20502;-81
2021/12/12 00:27:24;;;;;;;107.70;35.65;;;;;;;2.49;90.92;102054.28;1032275;28;20180;-80
2021/12/12 00:27:56;;;;;;;87.28;26.25;;;;;;;2.50;90.92;102052.59;1020395;29;20047;-81
2021/12/12 00:28:28;;;;;;;94.97;28.15;;;;;;;2.47;90.47;102050.72;1028207;28;20130;-81
2021/12/12 00:29:00;;;;;;;74.28;22.35;;;;;;;2.45;90.57;102047.16;1028163;28;20073;-80
2021/12/12 00:29:32;;;;;;;79.15;25.38;;;;;;;2.44;91.31;102053.00;1024463;29;20047;-80
2021/12/12 00:30:07;;;;;;;98.00;31.38;;;;;;;2.50;90.78;102043.28;1020391;29;20594;-80
2021/12/12 00:30:39;;;;;;;91.70;35.13;;;;;;;2.52;90.68;102048.53;1027756;28;20086;-80
2021/12/12 00:31:12;;;;;;;82.72;34.03;;;;;;;2.58;90.73;102048.09;1023913;29;20114;-80
2021/12/12 00:31:45;;;;;;;82.47;25.60;;;;;;;2.59;90.75;102044.78;1020262;29;20519;-80
2021/12/12 00:32:17;;;;;;;83.18;22.33;;;;;;;2.57;90.64;102041.25;1019485;29;20134;-81
2021/12/12 00:32:50;;;;;;;86.95;26.30;;;;;;;2.57;91.08;102046.34;1016475;29;20099;-80
2021/12/12 00:33:22;;;;;;;81.22;25.80;;;;;;;2.57;90.78;102051.44;1031497;28;20046;-81
2021/12/12 00:33:55;;;;;;;80.50;22.10;;;;;;;2.59;90.69;102049.88;1022570;29;20186;-80
2021/12/12 00:34:27;;;;;;;91.85;29.35;;;;;;;2.53;90.25;102053.72;1024366;29;20047;-80
2021/12/12 00:35:01;;;;;;;81.25;28.35;;;;;;;2.57;90.60;102051.44;1024235;28;20138;-80
2021/12/12 00:35:32;;;;;;;77.05;24.30;;;;;;;2.56;90.55;102049.66;1024332;29;20122;-81
2021/12/12 00:36:04;;;;;;;66.45;20.95;;;;;;;2.54;90.77;102055.50;1031342;28;20493;-81
2021/12/12 00:36:38;;;;;;;72.15;21.75;;;;;;;2.53;90.76;102050.31;1016246;29;20052;-80
2021/12/12 00:37:10;;;;;;;75.75;22.88;;;;;;;2.54;90.23;102047.88;1024122;28;20058;-81
2021/12/12 00:37:43;;;;;;;77.00;30.13;;;;;;;2.57;90.69;102051.44;1028208;28;20145;-80
2021/12/12 00:38:23;;;;;;;77.93;24.63;;;;;;;2.53;90.85;102048.63;1025853;28;20043;-80
2021/12/12 00:38:57;;;;;;;78.32;27.13;;;;;;;2.56;90.71;102049.66;1024471;29;20057;-80
2021/12/12 00:39:31;;;;;;;91.38;29.30;;;;;;;2.57;90.58;102047.22;1024143;28;20047;-80
2021/12/12 00:40:28;;;;;;;78.55;30.00;;;;;;;2.58;90.45;102040.44;1024274;29;20051;-80
2021/12/12 00:41:04;;;;;;;74.07;23.15;;;;;;;2.53;90.86;102046.09;1020373;29;20134;-80
2021/12/12 00:41:51;;;;;;;77.35;31.23;;;;;;;2.53;90.68;102035.91;1027654;28;20129;-80
2021/12/12 00:42:25;;;;;;;78.22;24.90;;;;;;;2.54;90.65;102037.69;1027899;28;20434;-80
2021/12/12 00:42:58;;;;;;;87.32;28.65;;;;;;;2.56;90.43;102034.38;1024149;28;20039;-81
2021/12/12 00:43:32;;;;;;;91.90;27.10;;;;;;;2.58;90.25;102037.91;1032192;28;20050;-81
2021/12/12 00:44:04;;;;;;;77.68;24.92;;;;;;;2.54;90.65;102032.59;1024299;29;20078;-81
2021/12/12 00:44:37;;;;;;;88.38;26.02;;;;;;;2.57;90.71;102031.06;1020371;29;20534;-80
2021/12/12 00:45:10;;;;;;;70.03;26.88;;;;;;;2.59;90.66;102032.06;1027843;28;20133;-80
2021/12/12 00:45:42;;;;;;;80.93;30.10;;;;;;;2.57;90.87;102031.94;1024145;29;20051;-80
2021/12/12 00:46:14;;;;;;;91.28;27.42;;;;;;;2.58;90.51;102025.19;1020157;29;20047;-81
2021/12/12 00:46:46;;;;;;;74.55;25.15;;;;;;;2.59;90.85;102024.41;1024353;29;20043;-81
2021/12/12 00:47:18;;;;;;;72.30;27.05;;;;;;;2.60;90.90;102031.28;1028197;28;20113;-80
2021/12/12 00:48:10;;;;;;;73.13;21.75;;;;;;;2.58;90.17;102030.28;1019888;29;20048;-80
2021/12/12 00:48:42;;;;;;;75.88;24.10;;;;;;;2.58;90.77;102033.72;1027952;28;20490;-81
2021/12/12 00:49:15;;;;;;;77.75;21.63;;;;;;;2.57;90.48;102031.06;1026798;28;20077;-81
2021/12/12 00:49:47;;;;;;;79.38;29.35;;;;;;;2.60;90.57;102037.28;1020222;29;20079;-80
2021/12/12 00:50:25;;;;;;;59.47;24.40;;;;;;;2.59;91.13;102032.06;1024210;28;20161;-80
2021/12/12 00:50:58;;;;;;;75.22;28.42;;;;;;;2.63;90.72;102039.16;1024345;29;20087;-80
2021/12/12 00:51:33;;;;;;;84.70;25.77;;;;;;;2.63;90.47;102036.63;1024318;29;20170;-81
2021/12/12 00:52:05;;;;;;;74.32;31.40;;;;;;;2.65;90.46;102027.44;1024059;29;20059;-81
2021/12/12 00:52:37;;;;;;;80.85;28.10;;;;;;;2.67;91.01;102034.44;1019842;29;20095;-81
2021/12/12 00:53:10;;;;;;;74.63;25.77;;;;;;;2.67;90.56;102028.44;1023127;29;20079;-80
2021/12/12 00:53:42;;;;;;;82.63;26.90;;;;;;;2.65;90.98;102030.88;1028124;28;20125;-81
2021/12/12 00:54:15;;;;;;;68.82;24.98;;;;;;;2.66;90.46;102031.75;1027455;28;20059;-80
2021/12/12 00:54:47;;;;;;;77.15;28.90;;;;;;;2.67;90.47;102028.44;1024302;29;20141;-81
2021/12/12 00:55:19;;;;;;;67.75;22.65;;;;;;;2.68;90.30;102027.69;1020097;29;20460;-80
2021/12/12 00:55:51;;;;;;;76.50;27.63;;;;;;;2.69;90.53;102032.00;1024400;29;20047;-81
2021/12/12 00:56:22;;;;;;;60.95;22.05;;;;;;;2.71;90.23;102033.00;1028091;28;20047;-81
2021/12/12 00:56:54;;;;;;;66.60;23.30;;;;;;;2.70;90.54;102028.69;1028343;28;20386;-81
2021/12/12 00:57:27;;;;;;;81.85;27.33;;;;;;;2.66;90.01;102026.66;1028236;28;20051;-81
2021/12/12 00:57:59;;;;;;;66.18;25.48;;;;;;;2.74;90.61;102025.59;1028223;28;20046;-82
2021/12/12 00:58:30;;;;;;;66.75;22.60;;;;;;;2.76;90.65;102026.59;1023556;29;20168;-80
2021/12/12 00:59:03;;;;;;;67.70;24.15;;;;;;;2.74;90.53;102030.69;1027783;28;20442;-81
2021/12/12 00:59:36;;;;;;;82.10;30.60;;;;;;;2.70;90.25;102029.56;1027917;28;20054;-83
2021/12/12 01:00:09;;;;;;;72.15;25.35;;;;;;;2.75;90.53;102027.38;1024078;29;20047;-80
2021/12/12 01:00:48;;;;;;;78.55;22.73;;;;;;;2.74;90.62;102024.72;1028176;28;20055;-81
2021/12/12 01:01:27;;;;;;;62.28;20.88;;;;;;;2.75;90.00;102027.38;1020203;29;20044;-81
2021/12/12 01:01:59;;;;;;;75.85;31.90;;;;;;;2.76;90.19;102024.06;1024301;29;20039;-81
2021/12/12 01:02:31;;;;;;;69.43;30.60;;;;;;;2.79;90.07;102019.19;1016012;29;20063;-82
2021/12/12 01:03:04;;;;;;;77.15;33.33;;;;;;;2.79;90.35;102023.41;1021000;28;20142;-80
2021/12/12 01:03:41;;;;;;;67.68;21.73;;;;;;;2.78;89.68;102017.44;1019987;29;20128;-80
2021/12/12 01:04:42;;;;;;;71.30;31.63;;;;;;;2.78;90.23;102014.88;1027651;28;20047;-81
2021/12/12 01:05:14;;;;;;;71.50;24.95;;;;;;;2.73;90.64;102017.84;1021296;29;20419;-81
2021/12/12 01:05:47;;;;;;;63.08;26.85;;;;;;;2.76;90.22;102013.88;1028174;28;20051;-81
2021/12/12 01:06:18;;;;;;;66.43;23.38;;;;;;;2.75;90.22;102022.28;1023006;28;20051;-80
2021/12/12 01:06:50;;;;;;;62.45;23.92;;;;;;;2.74;90.17;102015.41;1020156;29;20128;-80
2021/12/12 01:07:34;;;;;;;55.63;23.92;;;;;;;2.75;89.80;102026.50;1028134;28;20546;-81
2021/12/12 01:08:06;;;;;;;62.00;20.30;;;;;;;2.73;90.33;102022.94;1024213;28;20048;-80
2021/12/12 01:08:40;;;;;;;64.47;26.95;;;;;;;2.75;90.38;102022.28;1023645;28;20055;-81
2021/12/12 01:09:14;;;;;;;57.42;21.20;;;;;;;2.75;89.87;102024.81;1025739;28;20051;-81
2021/12/12 01:09:49;;;;;;;51.22;21.35;;;;;;;2.75;90.03;102017.19;1027621;28;20043;-81
2021/12/12 01:10:31;;;;;;;56.83;24.52;;;;;;;2.77;90.50;102020.75;1027299;28;20047;-80
2021/12/12 01:11:31;;;;;;;52.70;18.73;;;;;;;2.74;89.89;102015.41;1031094;28;20050;-80
2021/12/12 01:12:05;;;;;;;55.67;23.15;;;;;;;2.75;90.54;102017.19;1023048;28;20055;-80
2021/12/12 01:12:37;;;;;;;58.85;26.05;;;;;;;2.76;89.97;102024.06;1024076;29;20181;-80
2021/12/12 01:13:11;;;;;;;64.63;22.75;;;;;;;2.76;90.38;102015.53;1026990;28;20069;-81
2021/12/12 01:13:43;;;;;;;62.53;23.70;;;;;;;2.78;90.50;102016.53;1027398;28;20047;-81
2021/12/12 01:14:17;;;;;;;62.75;23.17;;;;;;;2.77;90.32;102018.19;1022377;28;20259;-81
2021/12/12 01:15:02;;;;;;;56.97;21.77;;;;;;;2.79;90.21;102018.31;1021929;29;20479;-79
2021/12/12 01:15:42;;;;;;;50.33;19.48;;;;;;;2.78;90.15;102019.97;1029671;28;20203;-80
2021/12/12 01:16:34;;;;;;;59.45;21.33;;;;;;;2.79;89.92;102020.84;1024440;28;20043;-80
2021/12/12 01:17:14;;;;;;;52.33;22.52;;;;;;;2.79;90.19;102019.19;1030566;28;20042;-80
2021/12/12 01:17:49;;;;;;;57.85;24.08;;;;;;;2.79;89.70;102018.31;1018205;29;20055;-80
2021/12/12 01:18:30;;;;;;;54.20;19.83;;;;;;;2.81;90.08;102022.72;1023682;28;20048;-80
2021/12/12 01:19:17;;;;;;;53.80;18.88;;;;;;;2.78;90.32;102021.63;1035740;28;20046;-80
2021/12/12 01:19:59;;;;;;;57.17;20.55;;;;;;;2.79;89.91;102019.19;1024126;28;20062;-80
2021/12/12 01:20:40;;;;;;;57.30;22.02;;;;;;;2.78;90.47;102016.53;1020172;29;20083;-80
2021/12/12 01:21:18;;;;;;;57.05;20.48;;;;;;;2.80;90.22;102015.00;1031839;28;20546;-81
2021/12/12 01:21:52;;;;;;;54.67;20.05;;;;;;;2.82;90.26;102013.47;1023774;28;20050;-80
2021/12/12 01:22:29;;;;;;;61.55;25.10;;;;;;;2.81;89.97;102016.78;1019706;29;20063;-81
2021/12/12 01:23:11;;;;;;;50.75;18.85;;;;;;;2.85;89.95;102013.66;1027885;28;20125;-80
2021/12/12 01:23:58;;;;;;;47.42;19.08;;;;;;;2.84;90.01;102022.06;1028299;28;20086;-80
2021/12/12 01:24:36;;;;;;;46.45;18.60;;;;;;;2.83;89.73;102015.25;1023831;28;20130;-79
2021/12/12 01:25:30;;;;;;;63.05;21.40;;;;;;;2.84;89.87;102024.63;1027272;28;20380;-81
2021/12/12 01:26:02;;;;;;;57.45;23.15;;;;;;;2.82;90.42;102019.44;1019818;29;20048;-80
2021/12/12 01:26:34;;;;;;;49.85;18.02;;;;;;;2.83;90.27;102018.66;1026635;28;20049;-80
2021/12/12 01:27:06;;;;;;;50.88;20.20;;;;;;;2.85;89.80;102022.22;1023601;29;20051;-78
2021/12/12 01:27:38;;;;;;;53.72;21.75;;;;;;;2.89;90.05;102019.88;1027280;28;20035;-80
2021/12/12 01:28:14;;;;;;;55.85;23.75;;;;;;;2.88;90.04;102019.00;1029602;28;20078;-80
2021/12/12 01:28:53;;;;;;;49.08;20.80;;;;;;;2.85;90.23;102019.66;1031195;28;20066;-80
2021/12/12 01:29:25;;;;;;;49.38;19.15;;;;;;;2.83;89.73;102021.19;1028542;28;20426;-80
2021/12/12 01:29:56;;;;;;;52.53;22.42;;;;;;;2.87;89.90;102022.31;1021828;28;20529;-79
2021/12/12 01:30:28;;;;;;;42.35;19.00;;;;;;;2.85;90.27;102024.75;1022003;29;20052;-80
2021/12/12 01:31:01;;;;;;;57.30;23.30;;;;;;;2.84;89.90;102025.53;1031687;28;20046;-80
2021/12/12 01:31:36;;;;;;;56.15;21.63;;;;;;;2.89;89.60;102019.88;1023154;28;20406;-80
2021/12/12 01:32:12;;;;;;;49.17;17.55;;;;;;;2.90;89.63;102016.56;1023836;29;20047;-80
2021/12/12 01:32:46;;;;;;;56.25;20.50;;;;;;;2.89;89.47;102017.34;1030560;28;21585;-80
2021/12/12 01:33:32;;;;;;;47.65;18.85;;;;;;;2.88;89.45;102019.00;1028018;28;20383;-80
2021/12/12 01:34:12;;;;;;;46.88;19.38;;;;;;;2.87;89.36;102026.53;1028129;28;20680;-80
2021/12/12 01:34:43;;;;;;;46.67;23.73;;;;;;;2.94;89.38;102018.59;1032129;28;20080;-79
2021/12/12 01:35:17;;;;;;;42.53;16.25;;;;;;;2.94;90.02;102031.31;1028123;28;20201;-80
2021/12/12 01:35:51;;;;;;;40.83;17.83;;;;;;;2.92;89.38;102025.22;1024008;29;20043;-81
2021/12/12 01:36:26;;;;;;;32.10;15.75;;;;;;;2.92;89.33;102025.22;1021106;29;20047;-80
2021/12/12 01:38:56;;;;;;;39.47;16.58;;;;;;;2.96;88.96;102032.28;1019811;29;20043;-80
2021/12/12 01:39:40;;;;;;;41.50;16.42;;;;;;;2.92;89.47;102031.19;1027670;28;20102;-80
2021/12/12 01:40:17;;;;;;;43.65;15.85;;;;;;;2.93;89.15;102029.53;1027431;28;20054;-80
2021/12/12 01:40:52;;;;;;;40.55;19.40;;;;;;;2.96;89.51;102027.19;1024949;28;20118;-81
2021/12/12 01:41:31;;;;;;;43.85;16.08;;;;;;;2.92;89.62;102020.13;1023369;28;20125;-81
2021/12/12 01:42:11;;;;;;;45.70;17.48;;;;;;;2.93;89.51;102032.09;1031302;28;20057;-80
2021/12/12 01:42:48;;;;;;;46.85;17.20;;;;;;;2.92;89.79;102025.22;1029279;28;20058;-80
2021/12/12 01:43:29;;;;;;;47.70;17.08;;;;;;;2.91;88.97;102025.97;1031537;28;20188;-80
2021/12/12 01:44:10;;;;;;;40.03;16.17;;;;;;;2.94;89.61;102026.22;1031648;28;20226;-81
2021/12/12 01:45:18;;;;;;;34.85;14.98;;;;;;;2.92;89.47;102027.75;1019948;29;20048;-79
2021/12/12 01:45:55;;;;;;;33.70;14.00;;;;;;;2.92;89.63;102035.41;1026497;28;20058;-80
2021/12/12 01:46:32;;;;;;;40.47;15.00;;;;;;;2.91;89.38;102029.41;1023727;29;20062;-79
2021/12/12 01:47:07;;;;;;;44.65;17.77;;;;;;;2.92;89.12;102035.41;1023019;29;20046;-80
2021/12/12 01:48:07;;;;;;;27.13;13.13;;;;;;;2.90;90.00;102032.75;1022861;28;20051;-80
2021/12/12 01:48:50;;;;;;;37.65;16.58;;;;;;;2.94;89.67;102034.72;1027263;28;20046;-81
2021/12/12 01:49:23;;;;;;;38.42;14.52;;;;;;;2.92;90.25;102030.31;1019408;29;20538;-81
2021/12/12 01:49:59;;;;;;;31.48;13.60;;;;;;;2.96;89.64;102035.75;1035965;28;20140;-80
2021/12/12 01:50:42;;;;;;;40.00;17.48;;;;;;;2.97;89.08;102037.53;1019698;29;20055;-80
2021/12/12 01:51:13;;;;;;;42.40;17.75;;;;;;;2.96;89.67;102035.75;1027912;28;20509;-81
2021/12/12 01:51:45;;;;;;;40.92;17.30;;;;;;;3.00;89.11;102034.31;1028039;28;20074;-80
2021/12/12 01:52:19;;;;;;;36.42;14.27;;;;;;;2.96;88.93;102038.28;1027757;28;20078;-79
2021/12/12 01:52:51;;;;;;;32.45;15.27;;;;;;;2.98;89.34;102035.84;1031619;28;20125;-80
2021/12/12 01:53:25;;;;;;;42.50;16.17;;;;;;;2.97;89.19;102036.63;1023255;29;20047;-79
2021/12/12 01:54:00;;;;;;;39.28;16.90;;;;;;;2.99;89.06;102037.63;1020812;29;20056;-80
2021/12/12 01:54:42;;;;;;;36.13;16.27;;;;;;;2.98;88.97;102030.75;1026913;28;20110;-80
2021/12/12 01:55:22;;;;;;;31.70;11.85;;;;;;;2.95;89.43;102035.59;1023979;28;20051;-80
2021/12/12 01:56:02;;;;;;;41.50;14.50;;;;;;;2.97;89.00;102034.97;1024106;29;20047;-79
2021/12/12 01:56:41;;;;;;;32.95;12.18;;;;;;;2.96;89.14;102034.84;1023284;28;20567;-80
2021/12/12 01:57:26;;;;;;;36.42;12.85;;;;;;;2.97;89.19;102036.63;1030716;28;20508;-79
2021/12/12 01:58:00;;;;;;;34.28;14.02;;;;;;;2.99;89.56;102032.53;1026540;28;20101;-80
2021/12/12 01:58:32;;;;;;;36.15;13.07;;;;;;;2.97;89.39;102028.97;1027652;28;20466;-80
2021/12/12 01:59:06;;;;;;;32.03;14.05;;;;;;;2.99;89.42;102033.41;1026474;28;20049;-79
2021/12/12 01:59:37;;;;;;;36.85;14.75;;;;;;;3.00;88.96;102031.78;1028002;28;20046;-79
2021/12/12 02:00:38;;;;;;;34.45;14.93;;;;;;;2.98;88.92;102028.22;1034019;28;20042;-80
2021/12/12 02:01:15;;;;;;;33.33;14.02;;;;;;;3.01;89.19;102025.91;1028411;28;20053;-80
2021/12/12 02:01:56;;;;;;;27.02;12.80;;;;;;;2.99;89.34;102028.31;1027669;28;20135;-80
2021/12/12 02:02:29;;;;;;;;;;;;;;;2.96;89.00;102023.00;1031771;28;20081;-80
2021/12/12 02:03:02;;;;;;;35.53;13.38;;;;;;;2.96;89.47;102024.66;1022468;29;19946;-80
2021/12/12 02:03:35;;;;;;;30.75;13.60;;;;;;;2.99;89.46;102027.44;1023688;29;20046;-80
2021/12/12 02:04:13;;;;;;;31.88;14.52;;;;;;;3.01;89.60;102018.28;1023369;29;20411;-80
2021/12/12 02:04:49;;;;;;;38.30;14.85;;;;;;;3.02;89.08;102022.56;1020949;29;20054;-80
2021/12/12 02:05:21;;;;;;;41.78;15.13;;;;;;;3.00;89.34;102019.91;1030384;28;20055;-80
2021/12/12 02:05:53;;;;;;;37.35;17.33;;;;;;;3.02;88.45;102017.47;1024697;28;20043;-80
2021/12/12 02:06:25;;;;;;;35.30;14.77;;;;;;;3.05;89.07;102022.81;1027625;28;20082;-81
2021/12/12 02:06:57;;;;;;;37.55;14.45;;;;;;;3.06;89.39;102019.50;1024354;28;20533;-80
2021/12/12 02:07:31;;;;;;;34.95;13.65;;;;;;;3.05;88.82;102017.72;1031922;28;20050;-80
2021/12/12 02:08:06;;;;;;;39.55;14.77;;;;;;;3.08;88.97;102022.13;1027507;28;20109;-81
2021/12/12 02:09:02;;;;;;;33.65;11.93;;;;;;;3.04;89.09;102021.03;1031272;28;20413;-81
2021/12/12 02:09:34;;;;;;;38.35;12.55;;;;;;;3.05;88.79;102020.25;1024912;28;20051;-80
2021/12/12 02:10:14;;;;;;;36.97;14.98;;;;;;;3.05;89.04;102020.25;1031083;28;20050;-81
2021/12/12 02:10:51;;;;;;;29.73;14.32;;;;;;;3.06;88.99;102016.94;1026488;28;20044;-79
2021/12/12 02:11:29;;;;;;;26.38;11.45;;;;;;;3.05;89.02;102017.72;1016130;29;20047;-81
2021/12/12 02:12:01;;;;;;;29.60;12.88;;;;;;;3.05;89.11;102022.81;1023912;28;20058;-81
2021/12/12 02:12:33;;;;;;;30.25;14.30;;;;;;;3.07;88.88;102018.72;1019894;29;20110;-81
2021/12/12 02:13:10;;;;;;;28.67;12.00;;;;;;;3.08;88.99;102012.88;1031613;28;20046;-81
2021/12/12 02:13:44;;;;;;;28.88;12.73;;;;;;;3.05;89.01;102017.72;1024054;28;20051;-81
2021/12/12 02:14:18;;;;;;;33.20;13.23;;;;;;;3.04;88.51;102021.03;1027993;28;20081;-80
2021/12/12 02:14:49;;;;;;;30.50;13.68;;;;;;;3.09;89.09;102024.78;1019957;28;20138;-80
2021/12/12 02:15:21;;;;;;;32.65;11.05;;;;;;;3.11;88.91;102007.09;1026094;28;20518;-81
2021/12/12 02:15:54;;;;;;;32.50;14.20;;;;;;;3.14;89.30;102017.50;1027094;28;20063;-81
2021/12/12 02:16:27;;;;;;;33.78;12.95;;;;;;;3.10;89.18;102011.28;1023759;29;20051;-80
2021/12/12 02:17:04;;;;;;;36.08;14.02;;;;;;;3.08;88.82;102012.88;1020250;29;20439;-81
2021/12/12 02:17:41;;;;;;;34.72;11.73;;;;;;;3.09;89.44;102019.69;1020003;29;20199;-81
2021/12/12 02:18:15;;;;;;;32.60;10.73;;;;;;;3.10;89.08;102018.06;1030045;28;20047;-81
2021/12/12 02:18:50;;;;;;;25.88;11.18;;;;;;;3.10;88.83;102016.38;1023652;29;20048;-81
2021/12/12 02:19:29;;;;;;;35.55;10.65;;;;;;;3.09;89.15;102017.16;1035757;28;20045;-81
2021/12/12 02:20:14;;;;;;;29.88;11.23;;;;;;;3.09;88.93;102012.06;1031890;28;20050;-81
2021/12/12 02:21:08;;;;;;;27.33;10.95;;;;;;;3.07;89.37;102018.72;1031631;28;20046;-81
2021/12/12 02:22:30;;;;;;;35.00;12.35;;;;;;;3.09;89.72;102019.69;1027198;28;20051;-81
2021/12/12 02:22:55;;;;;;;29.05;11.93;;;;;;;3.07;89.64;102011.09;1024482;28;20110;-81
2021/12/12 02:23:46;;;;;;;27.17;10.35;;;;;;;3.05;89.46;102012.63;1021759;29;20058;-81
2021/12/12 02:35:05;;;;;;;29.40;12.65;;;;;;;3.07;89.34;102006.00;1027277;28;20175;-79
2021/12/12 02:36:13;;;;;;;32.97;11.18;;;;;;;3.10;90.03;102011.28;1027518;28;20508;-81
2021/12/12 02:36:45;;;;;;;46.75;13.68;;;;;;;3.05;90.56;102010.06;1023922;29;20055;-81
2021/12/12 02:37:16;;;;;;;35.30;13.55;;;;;;;3.09;90.13;102013.72;1027526;28;20061;-80
2021/12/12 02:37:49;;;;;;;27.90;12.73;;;;;;;3.09;90.03;102013.72;1023351;29;20190;-79
2021/12/12 02:38:24;;;;;;;34.58;13.68;;;;;;;3.10;90.38;102013.84;1030832;28;20057;-80
2021/12/12 02:38:56;;;;;;;28.83;11.95;;;;;;;3.12;90.30;102014.84;1020549;28;20043;-80
2021/12/12 02:39:27;;;;;;;30.08;11.93;;;;;;;3.12;89.98;102013.97;1019909;29;20058;-81
2021/12/12 02:40:00;;;;;;;35.30;13.10;;;;;;;3.11;90.51;102010.53;1027671;28;20490;-81
2021/12/12 02:40:43;;;;;;;33.83;12.30;;;;;;;3.13;90.14;102016.63;1027932;28;20046;-81
2021/12/12 02:41:15;;;;;;;34.28;11.45;;;;;;;3.12;89.53;102013.97;1023807;28;20050;-80
2021/12/12 02:41:50;;;;;;;31.08;11.50;;;;;;;3.12;90.67;102013.97;1023840;29;20049;-80
2021/12/12 02:42:22;;;;;;;32.08;11.63;;;;;;;3.12;90.46;102012.31;1027773;28;20074;-81
2021/12/12 02:42:54;;;;;;;32.60;11.45;;;;;;;3.12;90.28;102014.84;1023469;29;20054;-80
2021/12/12 02:43:27;;;;;;;28.33;10.27;;;;;;;3.13;89.94;102020.81;1023566;28;20511;-80
2021/12/12 02:44:00;;;;;;;21.75;9.75;;;;;;;3.13;90.43;102020.81;1023719;29;20043;-80
2021/12/12 02:44:33;;;;;;;26.58;10.27;;;;;;;3.15;90.11;102016.72;1019490;29;20182;-81
2021/12/12 02:45:08;;;;;;;29.65;12.75;;;;;;;3.16;90.56;102011.75;1027596;28;20457;-81
2021/12/12 02:45:41;;;;;;;29.35;10.90;;;;;;;3.16;90.30;102021.94;1026319;28;20035;-81
2021/12/12 02:46:16;;;;;;;31.75;10.88;;;;;;;3.15;90.84;102017.63;1022845;28;20090;-80
2021/12/12 02:46:48;;;;;;;30.30;11.82;;;;;;;3.17;90.65;102007.56;1027851;28;20580;-80
2021/12/12 02:47:27;;;;;;;30.50;13.27;;;;;;;3.13;89.85;102011.53;1027698;28;20045;-80
2021/12/12 02:48:04;;;;;;;29.48;11.10;;;;;;;3.16;90.53;102016.84;1031716;28;20436;-80
2021/12/12 02:48:39;;;;;;;31.33;11.30;;;;;;;3.18;90.37;102020.38;1031400;28;20046;-80
2021/12/12 02:49:25;;;;;;;33.50;11.80;;;;;;;3.16;90.58;102008.31;1027863;28;20069;-80
2021/12/12 02:50:08;;;;;;;25.17;9.98;;;;;;;3.15;90.14;102010.00;1027776;28;20513;-80
2021/12/12 02:51:12;;;;;;;33.83;10.77;;;;;;;3.14;90.41;102013.31;1017524;29;20043;-81
2021/12/12 02:51:44;;;;;;;31.70;12.05;;;;;;;3.14;90.40;102009.84;1023755;29;20526;-80
2021/12/12 02:52:17;;;;;;;29.77;10.48;;;;;;;3.12;90.39;102008.88;1022801;29;20518;-80
2021/12/12 02:52:52;;;;;;;29.25;11.50;;;;;;;3.12;90.96;102009.75;1023592;29;20052;-80
2021/12/12 02:53:27;;;;;;;35.65;12.32;;;;;;;3.14;90.65;102003.13;1027424;28;20585;-80
2021/12/12 02:53:59;;;;;;;30.65;11.02;;;;;;;3.12;90.60;102004.66;1024291;28;20054;-80
2021/12/12 02:54:31;;;;;;;28.40;9.43;;;;;;;3.12;90.72;102007.22;1021103;29;20051;-80
2021/12/12 02:55:09;;;;;;;33.60;10.32;;;;;;;3.14;90.73;102010.75;1026751;28;20053;-80
2021/12/12 02:55:43;;;;;;;29.13;9.18;;;;;;;3.14;90.72;102013.31;1026828;28;20059;-81
2021/12/12 02:56:17;;;;;;;32.15;10.70;;;;;;;3.17;91.08;102008.44;1031611;28;20440;-81
2021/12/12 02:56:51;;;;;;;29.10;10.35;;;;;;;3.16;90.77;102004.09;1025547;28;20142;-79
2021/12/12 02:57:23;;;;;;;42.00;12.15;;;;;;;3.20;90.42;102011.97;1027795;28;20410;-80
2021/12/12 02:57:55;;;;;;;33.78;13.13;;;;;;;3.20;90.96;102011.97;1023884;29;20142;-80
2021/12/12 02:58:27;;;;;;;52.05;13.57;;;;;;;3.19;90.24;102011.09;1023590;28;20490;-79
2021/12/12 02:58:59;;;;;;;33.17;12.70;;;;;;;3.22;90.81;102006.22;1023790;28;20059;-81
2021/12/12 02:59:32;;;;;;;35.70;11.85;;;;;;;3.21;90.73;102014.63;1023808;29;20051;-80